Flight Track Log - Related Links

Times and Time Zones

All times are in EDT time to prevent confusion due to time zone crossing. See the SWA318 flight status page for this flight to view local times or setup timezone preferences in your user account.

Time Position Orientation Groundspeed Altitude Reporting Facility
EDT Latitude Longitude Course Direction KTS MPH feet Rate Location/Type
Thu 09:53:08 PM 39.1500 -76.6500 92° East 141 162 1,700  Level Potomac TRACON
Thu 09:55:12 PM 39.1456 -76.4828 92° East 220 253 5,800 2,674 Climbing Washington Center
Thu 09:56:12 PM 39.1483 -76.3758 88° East 255 293 9,900 3,200 Climbing Washington Center
Thu 09:58:12 PM 39.1622 -76.1350 86° East 358 412 15,400 2,800 Climbing Washington Center
Thu 09:59:12 PM 39.1794 -75.9986 81° East 378 435 18,300 2,700 Climbing Washington Center
Thu 10:00:12 PM 39.2131 -75.8567 73° East 392 451 20,800 2,500 Climbing Washington Center
Thu 10:01:12 PM 39.2989 -75.7472 45° Northeast 406 467 23,300 2,500 Climbing Washington Center
Thu 10:02:12 PM 39.3844 -75.6344 46° Northeast 419 482 25,800 1,732 Climbing Washington Center
Thu 10:04:26 PM 39.5772 -75.3847 45° Northeast 426 490 28,900 974 Climbing New York Center
Thu 10:05:23 PM 39.6606 -75.2742 46° Northeast 426 490 28,900  Level New York Center
Thu 10:06:22 PM 39.7400 -75.1606 48° Northeast 426 490 28,900 50 Level New York Center
Thu 10:07:23 PM 39.8150 -75.0517 48° Northeast 426 490 29,000 50 Climbing New York Center
Thu 10:08:23 PM 39.8919 -74.9400 48° Northeast 431 496 29,000  Level New York Center
Thu 10:09:24 PM 39.9817 -74.8128 47° Northeast 431 496 29,000  Level New York Center
Thu 10:10:23 PM 40.0647 -74.7008 46° Northeast 431 496 29,000  Level New York Center
Thu 10:11:24 PM 40.1772 -74.6422 22° Northeast 414 476 29,000  Level New York Center
Thu 10:12:23 PM 40.2825 -74.6072 14° North 420 483 29,000  Level New York Center
Thu 10:13:23 PM 40.3983 -74.5700 14° North 426 490 29,000 -50 Level New York Center
Thu 10:14:23 PM 40.5122 -74.5328 14° North 421 484 28,900 -50 Descending New York Center
Thu 10:15:24 PM 40.6258 -74.4978 13° North 416 479 28,900  Level New York Center
Thu 10:17:49 PM 40.9181 -74.4067 13° North 410 472 28,900  Level Boston Center
Thu 10:18:50 PM 41.0314 -74.3717 13° North 415 478 28,900 -397 Level Boston Center
Thu 10:19:50 PM 41.1486 -74.3339 14° North 415 478 28,100 -900 Descending Boston Center
Thu 10:20:50 PM 41.2617 -74.2986 13° North 415 478 27,100 -1,350 Descending Boston Center
Thu 10:21:50 PM 41.3708 -74.2603 15° North 415 478 25,400 -1,664 Descending Boston Center
Thu 10:22:49 PM 41.4819 -74.2219 14° North 410 472 23,800 -1,311 Descending Boston Center
Thu 10:23:49 PM 41.5908 -74.1917 12° North 405 466 22,800 -992 Descending Boston Center
Thu 10:24:50 PM 41.6997 -74.1528 15° North 405 466 21,800 -893 Descending Boston Center
Thu 10:25:50 PM 41.7833 -74.1300 11° North 394 453 21,000 -900 Descending Boston Center
Thu 10:26:50 PM 41.8964 -74.0911 14° North 384 442 20,000 -1,339 Descending Boston Center
Thu 10:27:51 PM 42.0053 -74.0550 14° North 371 427 18,300 -2,118 Descending Boston Center
Thu 10:28:49 PM 42.1039 -74.0183 15° North 364 419 15,800 -2,672 Descending Boston Center
Thu 10:29:50 PM 42.2064 -73.9844 14° North 374 430 13,000 -2,600 Descending Boston Center
Thu 10:30:49 PM 42.3111 -73.9506 13° North 379 436 10,600 -1,767 Descending Boston Center
Thu 10:31:59 PM 42.4158 -73.9194 12° North 331 381 9,200 -1,250 Descending Boston Center
Thu 10:32:49 PM 42.4828 -73.8928 16° North 328 377 8,100 -1,364 Descending Boston Center
Thu 10:33:49 PM 42.5744 -73.8922 360° North 307 353 6,700 -1,650 Descending Boston Center
Thu 10:34:49 PM 42.6475 -73.8908 North 295 339 4,800 -1,537 Descending Boston Center
Thu 10:35:50 PM 42.7289 -73.8872 North 290 334 3,600 -1,033 Descending Boston Center
Thu 10:36:51 PM 42.8164 -73.8864 360° North 290 334 2,700 -686 Descending Boston Center
Thu 10:38:10 PM 42.8956 -73.8828 North 212 244 2,000 -353 Descending Boston Center
Thu 10:38:50 PM 42.8794 -73.8483 123° Southeast 170 196 2,000  Level Boston Center
Thu 10:39:12 PM 42.8711 -73.8367 134° Southeast 149 171 2,000  Level Boston Center
Thu 10:39:51 PM 42.8714 -73.8083 89° East 117 135 2,000 -300 Level Boston Center
Thu 10:40:12 PM 42.8339 -73.8103 182° South 146 168 1,700 -759 Descending Boston Center
Thu 10:41:10 PM 42.7944 -73.8094 179° South 135 155 1,000 -678 Descending Boston Center
Thu 10:42:07 PM 42.7631 -73.8089 179° South 123 142 400 -632 Descending Boston Center

Login

Don't have an account? Register now (free) for customized features, flight alerts, and more!